SWR283 FAOR-LSZH
Flight info
| Callsign | SWR283 |
|---|---|
| Flight time | N/A |
| Altitude | 32000 |
| Route | LIV1C VASUR UZ21 ITROL UQ25 RUDAS UT941 IBRIT UM998 VUE/N0491F340 UM998 GURUT/N0483F360 UM998 NEBRA/N0475F380 UM998 CSO UM2 CIRTA/N0465F400 DCT ETOIL DCT OMEDA DCT TORTU DCT ERTEV DCT CANNE Z651 KELIP |
| Aircraft | A343/H-SDE2E3FGHIJ4J5M1RWXY/LB1D1 |
Departure
| Time | N/A |
|---|---|
| Airport | O.R. Tambo International Airport (FAOR) |
Arrival
| Time | 2026-05-06 16:58 |
|---|---|
| Airport | Zürich Airport (LSZH) |
| Time | Latitude | Longitude | Altitude | Speed | Heading |
|---|---|---|---|---|---|
| 2026-05-06 16:37 | 46.58039 | 8.81881 | 28699 ft | 520 kts | 349° |
| 2026-05-06 16:38 | 46.61615 | 8.81347 | 28132 ft | 514 kts | 349° |
| 2026-05-06 16:38 | 46.65158 | 8.80814 | 27376 ft | 508 kts | 352° |
| 2026-05-06 16:38 | 46.68644 | 8.80287 | 27000 ft | 500 kts | 352° |
| 2026-05-06 16:38 | 46.72088 | 8.79765 | 26461 ft | 495 kts | 352° |
| 2026-05-06 16:39 | 46.75502 | 8.79245 | 25884 ft | 491 kts | 352° |
| 2026-05-06 16:39 | 46.78891 | 8.78730 | 25247 ft | 489 kts | 352° |
| 2026-05-06 16:39 | 46.82268 | 8.78216 | 24598 ft | 487 kts | 352° |
| 2026-05-06 16:39 | 46.85633 | 8.77709 | 23996 ft | 484 kts | 352° |
| 2026-05-06 16:40 | 46.88971 | 8.77199 | 23490 ft | 480 kts | 352° |
| 2026-05-06 16:40 | 46.92284 | 8.76688 | 22894 ft | 475 kts | 352° |
| 2026-05-06 16:40 | 46.95557 | 8.76185 | 22288 ft | 471 kts | 352° |
| 2026-05-06 16:40 | 46.98785 | 8.75686 | 21760 ft | 465 kts | 352° |
| 2026-05-06 16:41 | 47.01993 | 8.75175 | 21087 ft | 459 kts | 352° |
| 2026-05-06 16:41 | 47.05140 | 8.74672 | 20300 ft | 453 kts | 352° |
| 2026-05-06 16:41 | 47.08260 | 8.74162 | 19545 ft | 447 kts | 351° |
| 2026-05-06 16:41 | 47.10284 | 8.73686 | 19055 ft | 443 kts | 348° |
| 2026-05-06 16:42 | 47.13294 | 8.72842 | 18326 ft | 437 kts | 347° |
| 2026-05-06 16:42 | 47.16255 | 8.72008 | 17521 ft | 431 kts | 347° |
| 2026-05-06 16:42 | 47.19187 | 8.71202 | 16706 ft | 426 kts | 347° |
| 2026-05-06 16:42 | 47.22088 | 8.70419 | 15906 ft | 421 kts | 348° |
| 2026-05-06 16:43 | 47.24955 | 8.69651 | 15241 ft | 413 kts | 348° |
| 2026-05-06 16:43 | 47.27699 | 8.68571 | 14510 ft | 405 kts | 336° |
| 2026-05-06 16:43 | 47.30264 | 8.66922 | 13720 ft | 401 kts | 332° |
| 2026-05-06 16:43 | 47.32773 | 8.65183 | 12919 ft | 395 kts | 332° |
| 2026-05-06 16:44 | 47.35251 | 8.63462 | 12101 ft | 391 kts | 332° |
| 2026-05-06 16:44 | 47.37644 | 8.61705 | 11689 ft | 377 kts | 328° |
| 2026-05-06 16:44 | 47.39865 | 8.59790 | 11391 ft | 361 kts | 326° |
| 2026-05-06 16:44 | 47.41972 | 8.57917 | 11127 ft | 347 kts | 326° |
| 2026-05-06 16:45 | 47.43987 | 8.56076 | 10877 ft | 333 kts | 322° |
| 2026-05-06 16:45 | 47.45526 | 8.53681 | 10598 ft | 315 kts | 296° |
| 2026-05-06 16:45 | 47.46168 | 8.50708 | 10380 ft | 298 kts | 276° |
| 2026-05-06 16:45 | 47.46458 | 8.47720 | 10083 ft | 291 kts | 274° |
| 2026-05-06 16:46 | 47.46715 | 8.44771 | 9722 ft | 288 kts | 274° |
| 2026-05-06 16:46 | 47.46978 | 8.41848 | 9342 ft | 287 kts | 275° |
| 2026-05-06 16:46 | 47.47247 | 8.38933 | 9070 ft | 285 kts | 275° |
| 2026-05-06 16:46 | 47.47518 | 8.36040 | 8800 ft | 283 kts | 275° |
| 2026-05-06 16:47 | 47.47789 | 8.33171 | 8542 ft | 281 kts | 276° |
| 2026-05-06 16:47 | 47.48063 | 8.30320 | 8318 ft | 279 kts | 276° |
| 2026-05-06 16:47 | 47.48333 | 8.27497 | 8113 ft | 276 kts | 276° |
| 2026-05-06 16:47 | 47.48597 | 8.24714 | 7893 ft | 271 kts | 276° |
| 2026-05-06 16:48 | 47.48861 | 8.21975 | 7736 ft | 266 kts | 275° |
| 2026-05-06 16:48 | 47.49112 | 8.19290 | 7596 ft | 260 kts | 275° |
| 2026-05-06 16:48 | 47.49357 | 8.16670 | 7465 ft | 253 kts | 275° |
| 2026-05-06 16:48 | 47.49596 | 8.14118 | 7333 ft | 248 kts | 275° |
| 2026-05-06 16:49 | 47.49827 | 8.11653 | 7202 ft | 243 kts | 275° |
| 2026-05-06 16:49 | 47.50081 | 8.09181 | 7069 ft | 239 kts | 280° |
| 2026-05-06 16:49 | 47.50846 | 8.07005 | 7015 ft | 243 kts | 311° |
| 2026-05-06 16:49 | 47.52272 | 8.05675 | 6900 ft | 246 kts | 342° |
| 2026-05-06 16:50 | 47.53973 | 8.05575 | 6771 ft | 248 kts | 14° |
| 2026-05-06 16:50 | 47.55470 | 8.06710 | 6658 ft | 247 kts | 43° |
| 2026-05-06 16:50 | 47.56641 | 8.08566 | 6529 ft | 247 kts | 52° |
| 2026-05-06 16:50 | 47.57714 | 8.10555 | 6422 ft | 247 kts | 53° |
| 2026-05-06 16:51 | 47.58774 | 8.12562 | 6298 ft | 247 kts | 53° |
| 2026-05-06 16:51 | 47.59828 | 8.14566 | 6169 ft | 246 kts | 53° |
| 2026-05-06 16:51 | 47.60841 | 8.16606 | 5998 ft | 245 kts | 62° |
| 2026-05-06 16:51 | 47.61337 | 8.18978 | 5818 ft | 240 kts | 84° |
| 2026-05-06 16:52 | 47.61498 | 8.21430 | 5642 ft | 238 kts | 88° |
| 2026-05-06 16:52 | 47.61607 | 8.23864 | 5467 ft | 235 kts | 89° |
| 2026-05-06 16:52 | 47.61716 | 8.26263 | 5287 ft | 232 kts | 88° |
| 2026-05-06 16:52 | 47.61818 | 8.28865 | 5086 ft | 228 kts | 90° |
| 2026-05-06 16:53 | 47.61617 | 8.30926 | 4938 ft | 222 kts | 109° |
| 2026-05-06 16:53 | 47.61111 | 8.33047 | 4800 ft | 216 kts | 114° |
| 2026-05-06 16:53 | 47.60569 | 8.35082 | 4656 ft | 209 kts | 114° |
| 2026-05-06 16:53 | 47.59987 | 8.37014 | 4492 ft | 202 kts | 122° |
| 2026-05-06 16:54 | 47.59138 | 8.38622 | 4373 ft | 193 kts | 135° |
| 2026-05-06 16:54 | 47.58188 | 8.39971 | 4198 ft | 187 kts | 137° |
| 2026-05-06 16:54 | 47.57236 | 8.41290 | 3880 ft | 187 kts | 137° |
| 2026-05-06 16:54 | 47.56290 | 8.42583 | 3611 ft | 181 kts | 138° |
| 2026-05-06 16:55 | 47.55396 | 8.43807 | 3366 ft | 170 kts | 138° |
| 2026-05-06 16:55 | 47.54558 | 8.44953 | 3163 ft | 156 kts | 138° |
| 2026-05-06 16:55 | 47.53789 | 8.46003 | 2942 ft | 145 kts | 138° |
| 2026-05-06 16:55 | 47.53051 | 8.47010 | 2781 ft | 146 kts | 139° |
| 2026-05-06 16:56 | 47.52300 | 8.48034 | 2557 ft | 147 kts | 139° |
| 2026-05-06 16:56 | 47.51631 | 8.48950 | 2381 ft | 146 kts | 139° |
| 2026-05-06 16:56 | 47.50807 | 8.50065 | 2124 ft | 144 kts | 140° |
| 2026-05-06 16:56 | 47.50080 | 8.51085 | 1903 ft | 143 kts | 139° |
| 2026-05-06 16:57 | 47.49341 | 8.52071 | 1727 ft | 143 kts | 139° |
| 2026-05-06 16:57 | 47.48609 | 8.53062 | 1529 ft | 142 kts | 139° |
| 2026-05-06 16:57 | 47.47892 | 8.54053 | 1420 ft | 138 kts | 141° |
| 2026-05-06 16:57 | 47.47294 | 8.54853 | 1402 ft | 90 kts | 137° |
| 2026-05-06 16:58 | 47.46966 | 8.55304 | 1402 ft | 42 kts | 137° |
| 2026-05-06 16:58 | 47.46780 | 8.55552 | 1406 ft | 32 kts | 141° |
| 2026-05-06 16:58 | 47.46610 | 8.55674 | 1402 ft | 24 kts | 167° |
| 2026-05-06 16:58 | 47.46477 | 8.55719 | 1405 ft | 13 kts | 168° |
| 2026-05-06 16:59 | 47.46402 | 8.55746 | 1409 ft | 10 kts | 163° |
| 2026-05-06 16:59 | 47.46351 | 8.55797 | 1413 ft | 8 kts | 135° |
| 2026-05-06 16:59 | 47.46307 | 8.55861 | 1414 ft | 10 kts | 136° |
| 2026-05-06 16:59 | 47.46251 | 8.55939 | 1414 ft | 11 kts | 136° |
| 2026-05-06 17:00 | 47.46194 | 8.55999 | 1409 ft | 9 kts | 166° |
| 2026-05-06 17:00 | 47.46136 | 8.55996 | 1412 ft | 8 kts | 185° |
| 2026-05-06 17:00 | 47.46078 | 8.55987 | 1413 ft | 9 kts | 186° |
| 2026-05-06 17:00 | 47.46001 | 8.55975 | 1413 ft | 13 kts | 186° |
| 2026-05-06 17:01 | 47.45936 | 8.55931 | 1418 ft | 9 kts | 245° |
| 2026-05-06 17:01 | 47.45942 | 8.55832 | 1410 ft | 11 kts | 277° |
| 2026-05-06 17:01 | 47.45951 | 8.55706 | 1409 ft | 14 kts | 276° |
| 2026-05-06 17:01 | 47.45960 | 8.55577 | 1411 ft | 9 kts | 276° |
| 2026-05-06 17:02 | 47.45986 | 8.55519 | 1412 ft | 6 kts | 347° |
| 2026-05-06 17:02 | 47.46032 | 8.55526 | 1411 ft | 6 kts | 6° |
| 2026-05-06 17:02 | 47.46048 | 8.55528 | 1412 ft | 1 kts | 6° |
| 2026-05-06 17:02 | 47.46049 | 8.55529 | 1411 ft | 0 kts | 6° |